Time;durP1;ratioP1;P1;durP2;ratioP2;P2;SDS_P1;SDS_P2;PMS_P1;PMS_P2;Temp;Humidity;BMP_temperature;BMP_pressure;BME280_temperature;BME280_humidity;BME280_pressure;Samples;Min_cycle;Max_cycle;Signal;HPM_P1;HPM_P2
2023/08/23 00:00:14;;;;;;;8.10;6.40;;;22.80;84.20;;;25.65;53.41;101857.44;5114683;28;20572;-61
2023/08/23 00:02:41;;;;;;;10.60;5.93;;;22.80;83.90;;;25.67;53.63;101859.91;5131446;27;20203;-61
2023/08/23 00:05:08;;;;;;;8.80;6.00;;;22.90;83.70;;;25.66;52.96;101859.09;5131505;27;20552;-62
2023/08/23 00:07:35;;;;;;;9.07;6.40;;;22.90;83.60;;;25.65;52.69;101856.66;5131653;27;20191;-61
2023/08/23 00:10:03;;;;;;;9.17;5.70;;;22.90;83.40;;;25.61;53.45;101860.91;5126343;27;20261;-61
2023/08/23 00:12:30;;;;;;;11.93;6.50;;;22.80;83.20;;;25.57;53.49;101865.16;5124765;27;20259;-62
2023/08/23 00:14:57;;;;;;;6.63;4.67;;;22.80;83.20;;;25.49;53.51;101869.91;5131533;27;20195;-61
2023/08/23 00:17:26;;;;;;;9.57;5.67;;;22.80;83.20;;;25.46;52.95;101870.38;5131634;27;20183;-61
2023/08/23 00:19:54;;;;;;;10.67;5.67;;;22.70;83.70;;;25.44;53.92;101869.00;5130339;27;20877;-63
2023/08/23 00:22:21;;;;;;;9.00;5.37;;;22.70;84.00;;;25.45;53.46;101868.75;5131401;27;20207;-62
2023/08/23 00:24:48;;;;;;;10.13;6.20;;;22.70;84.50;;;25.47;53.72;101861.25;5131251;27;20192;-61
2023/08/23 00:27:15;;;;;;;8.67;6.17;;;22.70;84.70;;;25.51;54.19;101865.06;5131302;27;20191;-62
2023/08/23 00:29:42;;;;;;;6.80;5.57;;;22.70;84.80;;;25.56;53.53;101858.94;5136091;27;20232;-62
2023/08/23 00:32:09;;;;;;;9.27;5.77;;;22.70;84.70;;;25.62;54.13;101851.75;5131109;27;20635;-61
2023/08/23 00:34:37;;;;;;;8.73;5.10;;;22.80;84.70;;;25.64;53.70;101861.22;5147717;27;20191;-63
2023/08/23 00:37:05;;;;;;;11.77;6.27;;;22.80;84.40;;;25.66;53.35;101859.09;5151730;27;20585;-61
2023/08/23 00:39:32;;;;;;;8.13;6.03;;;22.80;83.90;;;25.64;53.35;101872.03;5148432;27;20625;-61
2023/08/23 00:41:59;;;;;;;7.47;5.23;;;22.90;83.80;;;25.61;52.94;101852.81;5110377;28;20208;-60
2023/08/23 00:44:26;;;;;;;7.27;5.50;;;22.80;83.70;;;25.60;53.41;101853.88;5116463;28;20652;-62
2023/08/23 00:46:53;;;;;;;7.17;5.10;;;22.80;84.00;;;25.58;53.79;101861.41;5131956;27;20593;-61
2023/08/23 00:49:21;;;;;;;9.00;5.63;;;22.80;84.10;;;25.56;53.09;101858.94;5131520;27;20297;-61
2023/08/23 00:51:51;;;;;;;9.33;5.53;;;22.80;84.20;;;25.54;53.29;101859.19;5130739;27;20229;-61
2023/08/23 00:54:18;;;;;;;6.27;4.83;;;22.80;84.10;;;25.53;53.69;101857.53;5117177;27;20188;-61
2023/08/23 00:56:46;;;;;;;9.03;5.07;;;22.80;84.00;;;25.50;53.36;101854.53;5117161;28;20188;-59
2023/08/23 00:59:14;;;;;;;8.07;5.40;;;22.70;83.80;;;25.44;53.60;101848.25;5115762;28;20222;-59
2023/08/23 01:01:42;;;;;;;8.10;4.83;;;22.70;83.60;;;25.39;53.01;101858.91;5116754;28;20208;-58
2023/08/23 01:04:09;;;;;;;8.63;4.67;;;22.60;83.70;;;25.35;53.44;101856.94;5116843;28;20265;-59
2023/08/23 01:06:53;;;;;;;6.70;4.90;;;22.60;84.30;;;25.28;53.33;101850.91;5116841;28;20195;-60
2023/08/23 01:09:34;;;;;;;8.23;4.90;;;22.50;84.30;;;25.23;53.90;101854.34;5114272;28;20225;-61
2023/08/23 01:12:13;;;;;;;6.50;4.60;;;22.50;84.40;;;25.19;54.03;101855.88;5096224;28;20206;-59
2023/08/23 01:14:51;;;;;;;10.07;4.90;;;22.40;84.60;;;25.16;53.72;101848.28;5096416;28;20203;-61
2023/08/23 01:17:21;;;;;;;6.67;5.20;;;22.40;84.80;;;25.14;54.14;101850.41;5095953;28;20210;-61
2023/08/23 01:19:50;;;;;;;8.50;5.70;;;22.40;84.90;;;25.12;54.01;101852.53;5096186;28;20220;-61
2023/08/23 01:22:23;;;;;;;7.93;5.93;;;22.30;85.10;;;25.10;54.24;101846.56;5095924;28;20271;-61
2023/08/23 01:24:53;;;;;;;6.83;4.57;;;22.30;85.30;;;25.08;54.43;101851.38;5096280;28;20180;-61
2023/08/23 01:27:20;;;;;;;9.33;6.00;;;22.30;85.50;;;25.07;55.01;101855.13;5094841;28;20198;-62
2023/08/23 01:29:48;;;;;;;9.40;5.77;;;22.30;85.70;;;25.07;54.47;101860.53;5098942;27;20226;-62
2023/08/23 01:32:30;;;;;;;11.13;7.70;;;22.30;86.00;;;25.05;54.88;101857.25;5096362;28;20219;-63
2023/08/23 01:35:07;;;;;;;10.73;8.17;;;22.30;85.80;;;25.05;54.43;101851.88;5134992;27;20188;-64
2023/08/23 01:37:38;;;;;;;9.40;6.97;;;22.30;85.60;;;25.04;54.21;101857.50;5136640;27;20254;-61
2023/08/23 01:40:09;;;;;;;9.03;6.17;;;22.20;85.50;;;25.00;54.72;101851.78;5116694;27;20222;-61
2023/08/23 01:42:38;;;;;;;8.40;6.13;;;22.30;85.70;;;24.98;54.51;101850.38;5095594;28;20215;-61
2023/08/23 01:45:07;;;;;;;11.97;9.93;;;22.20;85.50;;;24.91;54.90;101850.53;5105958;28;20196;-61
2023/08/23 01:47:34;;;;;;;8.93;7.00;;;22.10;85.60;;;24.84;55.16;101841.78;5115990;28;20684;-61
2023/08/23 01:50:02;;;;;;;9.77;7.33;;;22.10;86.10;;;24.82;55.41;101843.88;5114871;28;20214;-60
2023/08/23 01:52:29;;;;;;;9.37;7.60;;;22.10;86.50;;;24.83;55.97;101850.91;5115847;28;20183;-60
2023/08/23 01:54:57;;;;;;;11.47;8.17;;;22.10;87.00;;;24.86;56.09;101847.75;5116174;28;20216;-61
2023/08/23 01:57:25;;;;;;;9.83;7.50;;;22.10;87.10;;;24.89;55.60;101849.94;5115624;28;20200;-61
2023/08/23 01:59:52;;;;;;;9.30;8.13;;;22.10;87.20;;;24.92;55.69;101846.78;5115150;28;20220;-60
2023/08/23 02:02:19;;;;;;;12.17;6.83;;;22.20;87.00;;;24.93;55.84;101837.66;5116000;27;20564;-60
2023/08/23 02:04:46;;;;;;;9.07;7.67;;;22.10;86.80;;;24.96;55.33;101837.13;5115260;28;20199;-61
2023/08/23 02:07:13;;;;;;;10.70;8.30;;;22.20;86.80;;;24.97;55.53;101833.41;5115599;28;20223;-61
2023/08/23 02:09:40;;;;;;;7.73;6.43;;;22.20;86.40;;;24.97;54.99;101838.78;5115389;28;20215;-62
2023/08/23 02:12:07;;;;;;;9.33;7.37;;;22.20;86.50;;;24.99;55.50;101852.81;5101109;28;20284;-60
2023/08/23 02:14:36;;;;;;;10.70;7.90;;;22.30;86.50;;;25.01;55.16;101845.31;5095474;28;20196;-61
2023/08/23 02:17:03;;;;;;;9.07;7.90;;;22.20;86.40;;;25.00;54.32;101841.00;5095390;28;20189;-61
2023/08/23 02:19:30;;;;;;;10.37;7.43;;;22.20;85.90;;;24.96;54.72;101844.44;5094971;28;20212;-62
2023/08/23 02:21:57;;;;;;;10.10;6.93;;;22.20;85.30;;;24.89;54.29;101849.94;5107460;28;20199;-61
2023/08/23 02:24:24;;;;;;;9.23;6.80;;;22.20;85.30;;;24.84;54.69;101860.66;5100830;28;20192;-61
2023/08/23 02:26:51;;;;;;;8.60;6.90;;;22.10;85.70;;;24.81;55.28;101866.50;5095456;28;20199;-61
2023/08/23 02:29:18;;;;;;;9.67;7.73;;;22.10;86.30;;;24.80;54.85;101859.47;5100129;27;20193;-61
2023/08/23 02:31:46;;;;;;;11.10;9.10;;;22.10;86.60;;;24.81;55.69;101855.75;5113522;27;20261;-60
2023/08/23 02:34:14;;;;;;;12.03;7.93;;;22.00;86.90;;;24.83;55.80;101856.31;5120777;27;20317;-60
2023/08/23 02:36:41;;;;;;;11.00;9.77;;;22.00;87.30;;;24.85;55.59;101859.56;5135568;27;20747;-61
2023/08/23 02:39:09;;;;;;;15.87;11.20;;;22.00;87.40;;;24.86;55.62;101863.91;5135369;27;20193;-61
2023/08/23 02:41:36;;;;;;;13.30;10.03;;;22.10;87.50;;;24.85;55.34;101856.88;5123213;27;20196;-62
2023/08/23 02:44:03;;;;;;;11.53;8.37;;;22.00;87.40;;;24.84;55.81;101855.25;5110665;28;20220;-61
2023/08/23 02:46:30;;;;;;;13.60;12.20;;;22.00;87.50;;;24.85;55.27;101854.19;5114997;28;20253;-61
2023/08/23 02:48:59;;;;;;;14.57;10.07;;;22.00;87.20;;;24.84;55.38;101849.88;5114752;28;20187;-61
2023/08/23 02:51:26;;;;;;;15.80;10.77;;;22.00;87.20;;;24.84;55.53;101847.97;5114076;28;20209;-60
2023/08/23 02:53:53;;;;;;;11.03;9.67;;;22.00;87.40;;;24.84;55.24;101849.88;5114547;28;20191;-59
2023/08/23 02:56:20;;;;;;;16.40;10.37;;;22.00;87.50;;;24.84;55.97;101839.09;5114776;28;20250;-61
2023/08/23 02:58:47;;;;;;;15.47;13.13;;;22.00;87.30;;;24.82;55.50;101835.81;5114459;28;20187;-61
2023/08/23 03:01:15;;;;;;;17.43;13.93;;;22.10;87.00;;;24.72;55.71;101836.41;5114583;28;20235;-61
2023/08/23 03:03:42;;;;;;;11.63;10.33;;;22.00;86.80;;;24.58;56.22;101839.66;5113498;28;20226;-61
2023/08/23 03:06:11;;;;;;;12.77;10.53;;;22.00;86.90;;;24.48;56.24;101840.28;5114569;28;20183;-61
2023/08/23 03:08:38;;;;;;;9.80;7.83;;;21.90;87.10;;;24.47;55.91;101844.00;5114001;28;20219;-60
2023/08/23 03:11:07;;;;;;;17.03;11.97;;;21.90;87.30;;;24.49;56.58;101843.75;5114531;28;20211;-60
2023/08/23 03:13:34;;;;;;;16.13;12.10;;;21.90;87.60;;;24.51;56.47;101845.16;5096110;28;20291;-61
2023/08/23 03:16:02;;;;;;;17.87;13.17;;;21.80;87.80;;;24.54;56.17;101846.56;5093834;28;20196;-61
2023/08/23 03:18:29;;;;;;;12.90;9.30;;;21.80;87.80;;;24.54;56.15;101849.25;5093536;28;20196;-61
2023/08/23 03:20:56;;;;;;;14.83;10.63;;;21.80;88.00;;;24.55;55.99;101850.88;5094050;28;20212;-60
2023/08/23 03:23:25;;;;;;;14.07;12.67;;;21.80;88.30;;;24.57;56.45;101846.06;5108367;28;20207;-61
2023/08/23 03:25:52;;;;;;;16.37;12.53;;;21.80;88.20;;;24.58;56.22;101842.34;5114415;28;20235;-61
2023/08/23 03:28:19;;;;;;;14.03;10.83;;;21.80;88.00;;;24.57;56.24;101838.00;5114670;28;20230;-63
2023/08/23 03:30:46;;;;;;;12.97;10.93;;;21.80;87.90;;;24.58;55.94;101839.66;5129054;27;20219;-60
2023/08/23 03:33:13;;;;;;;12.10;10.37;;;21.80;88.10;;;24.61;55.71;101836.47;5114548;27;20187;-61
2023/08/23 03:35:40;;;;;;;18.30;12.07;;;21.80;87.90;;;24.64;56.03;101839.50;5134437;27;20190;-60
2023/08/23 03:38:07;;;;;;;15.53;10.93;;;21.80;87.80;;;24.65;56.24;101837.63;5134580;27;20184;-60
2023/08/23 03:40:37;;;;;;;14.93;12.03;;;21.80;87.80;;;24.65;55.98;101845.72;5134212;27;20290;-62
2023/08/23 03:43:05;;;;;;;14.60;11.23;;;21.80;87.80;;;24.64;56.23;101835.97;5118748;27;20204;-61
2023/08/23 03:45:33;;;;;;;15.37;13.03;;;21.90;88.10;;;24.67;55.88;101838.19;5113931;28;20191;-61
2023/08/23 03:48:00;;;;;;;13.30;11.90;;;21.80;87.90;;;24.65;56.03;101835.72;5113222;28;20214;-61
2023/08/23 03:50:27;;;;;;;15.83;13.10;;;21.80;88.00;;;24.66;55.76;101842.75;5108986;28;20220;-61
2023/08/23 03:52:54;;;;;;;14.63;11.33;;;21.80;88.00;;;24.68;55.60;101839.81;5114150;28;20184;-61
2023/08/23 03:55:21;;;;;;;15.63;11.33;;;21.80;88.20;;;24.70;55.72;101837.69;5113774;28;20184;-60
2023/08/23 03:57:51;;;;;;;14.73;12.03;;;21.80;88.20;;;24.72;55.42;101835.59;5113749;28;20224;-61
2023/08/23 04:00:18;;;;;;;15.70;11.10;;;21.80;88.10;;;24.75;56.04;101835.94;5094663;28;20287;-60
2023/08/23 04:02:46;;;;;;;14.27;11.97;;;21.90;88.40;;;24.77;55.31;101843.81;5093558;28;20209;-60
2023/08/23 04:05:13;;;;;;;13.57;11.57;;;21.80;88.00;;;24.78;56.21;101834.66;5093642;28;20193;-60
2023/08/23 04:07:41;;;;;;;12.70;11.40;;;21.80;88.20;;;24.81;55.41;101839.56;5093734;28;20193;-59
2023/08/23 04:10:09;;;;;;;13.37;11.50;;;21.90;88.20;;;24.82;55.13;101841.19;5109654;28;20219;-62
2023/08/23 04:12:36;;;;;;;19.23;14.50;;;21.90;87.80;;;24.83;54.98;101849.06;5113629;28;20187;-61
2023/08/23 04:15:06;;;;;;;16.03;14.23;;;21.90;87.70;;;24.82;55.50;101846.56;5098213;28;20196;-61
2023/08/23 04:17:33;;;;;;;21.33;14.67;;;21.90;87.80;;;24.78;55.53;101857.03;5093551;28;20181;-58
2023/08/23 04:20:01;;;;;;;12.53;11.13;;;21.90;87.90;;;24.72;55.58;101851.78;5092982;28;20685;-60
2023/08/23 04:22:30;;;;;;;17.07;13.33;;;21.80;87.80;;;24.70;55.62;101854.69;5093152;28;20212;-60
2023/08/23 04:24:58;;;;;;;17.17;14.80;;;21.80;88.30;;;24.68;55.71;101861.38;5106587;28;20192;-60
2023/08/23 04:27:25;;;;;;;16.43;14.73;;;21.70;88.20;;;24.59;55.18;101854.72;5113889;28;20190;-63
2023/08/23 04:29:52;;;;;;;15.37;13.77;;;21.70;88.10;;;24.54;55.61;101860.84;5124185;27;20211;-60
2023/08/23 04:32:20;;;;;;;16.10;13.73;;;21.60;88.50;;;24.50;55.73;101850.78;5138231;27;20199;-59
2023/08/23 04:34:48;;;;;;;16.80;14.23;;;21.60;88.60;;;24.47;55.81;101856.63;5119357;27;20713;-61
2023/08/23 04:37:15;;;;;;;14.37;12.87;;;21.50;88.60;;;24.43;56.18;101847.41;5117427;28;20636;-59
2023/08/23 04:39:42;;;;;;;19.73;13.97;;;21.50;88.80;;;24.39;56.08;101857.81;5116969;28;20289;-61
2023/08/23 04:42:09;;;;;;;16.43;13.87;;;21.50;89.10;;;24.35;56.25;101853.16;5116969;28;20278;-60
2023/08/23 04:44:36;;;;;;;16.53;14.83;;;21.50;89.30;;;24.35;56.44;101855.84;5109419;28;20271;-61
2023/08/23 04:47:03;;;;;;;15.77;13.07;;;21.40;89.50;;;24.35;56.97;101845.09;5116693;28;20224;-61
2023/08/23 04:49:32;;;;;;;14.93;13.33;;;21.40;90.30;;;24.36;56.70;101852.94;5116561;28;20203;-62
2023/08/23 04:51:59;;;;;;;16.87;15.10;;;21.50;90.10;;;24.43;56.75;101858.19;5115897;28;20215;-59
2023/08/23 04:54:26;;;;;;;16.93;14.07;;;21.50;90.10;;;24.46;56.48;101857.72;5116210;27;20223;-61
2023/08/23 04:56:53;;;;;;;17.57;15.40;;;21.50;90.00;;;24.52;56.94;101845.97;5117523;28;20200;-65
2023/08/23 04:59:20;;;;;;;13.83;11.97;;;21.60;90.00;;;24.54;56.95;101844.69;5115794;28;20622;-62
2023/08/23 05:01:47;;;;;;;15.83;12.13;;;21.60;90.00;;;24.56;56.90;101849.81;5116770;28;20192;-64
2023/08/23 05:04:14;;;;;;;20.27;16.27;;;21.60;89.90;;;24.57;56.24;101849.59;5104922;28;20216;-62
2023/08/23 05:06:42;;;;;;;23.17;18.90;;;21.60;89.80;;;24.51;56.32;101847.06;5096389;28;20187;-61
2023/08/23 05:09:09;;;;;;;21.03;15.40;;;21.60;89.10;;;24.45;56.11;101848.00;5096397;28;20195;-61
2023/08/23 05:11:36;;;;;;;22.23;17.57;;;21.60;89.10;;;24.45;56.19;101856.06;5096149;28;20537;-62
2023/08/23 05:14:05;;;;;;;22.10;19.47;;;21.60;89.30;;;24.43;56.51;101855.50;5105872;28;20188;-61
2023/08/23 05:16:32;;;;;;;22.43;20.13;;;21.60;89.40;;;24.41;56.98;101854.91;5116122;28;20191;-62
2023/08/23 05:18:59;;;;;;;24.73;20.77;;;21.50;89.60;;;24.39;56.96;101857.03;5116746;28;20196;-61
2023/08/23 05:21:26;;;;;;;25.83;21.23;;;21.50;89.70;;;24.38;56.71;101850.00;5116373;28;20231;-62
2023/08/23 05:23:54;;;;;;;21.00;17.47;;;21.50;90.00;;;24.36;56.92;101857.50;5104794;28;20209;-61
2023/08/23 05:26:21;;;;;;;20.97;18.53;;;21.40;89.90;;;24.34;57.00;101848.84;5095714;28;20605;-60
2023/08/23 05:28:48;;;;;;;22.00;18.63;;;21.40;90.00;;;24.36;56.89;101857.50;5095251;28;20184;-62
2023/08/23 05:31:15;;;;;;;24.70;18.37;;;21.40;90.00;;;24.36;57.27;101857.50;5134452;27;20211;-62
2023/08/23 05:33:43;;;;;;;20.00;15.27;;;21.50;90.10;;;24.34;56.77;101857.75;5135024;27;20335;-62
2023/08/23 05:36:10;;;;;;;20.33;17.00;;;21.50;90.00;;;24.35;56.54;101855.84;5136120;27;20244;-62
2023/08/23 05:38:37;;;;;;;23.97;17.83;;;21.50;90.00;;;24.31;56.51;101865.47;5135765;27;20190;-60
2023/08/23 05:41:05;;;;;;;18.60;16.40;;;21.50;89.90;;;24.20;56.62;101859.88;5136205;27;20309;-63
2023/08/23 05:43:32;;;;;;;18.63;15.73;;;21.40;89.80;;;24.16;56.93;101861.41;5120940;27;20243;-61
2023/08/23 05:46:00;;;;;;;19.07;15.20;;;21.40;90.00;;;24.19;57.14;101868.19;5112661;28;20674;-60
2023/08/23 05:48:27;;;;;;;16.93;14.67;;;21.40;90.00;;;24.19;57.33;101866.31;5115412;28;20194;-63
2023/08/23 05:50:54;;;;;;;16.23;14.53;;;21.30;90.00;;;24.23;57.15;101870.16;5115134;28;20303;-59
2023/08/23 05:53:21;;;;;;;20.43;14.67;;;21.40;90.10;;;24.25;57.45;101872.59;5109937;28;20274;-61
2023/08/23 05:55:49;;;;;;;23.33;20.40;;;21.40;90.00;;;24.28;56.99;101871.31;5095114;28;20250;-61
2023/08/23 05:58:18;;;;;;;23.17;18.93;;;21.40;90.00;;;24.27;57.05;101875.88;5094716;28;20285;-63
2023/08/23 06:00:49;;;;;;;21.37;19.07;;;21.40;89.90;;;24.22;56.72;101879.28;5094600;28;20215;-61
2023/08/23 06:03:16;;;;;;;23.50;19.93;;;21.40;90.10;;;24.17;56.76;101881.06;5093871;28;20208;-60
2023/08/23 06:05:44;;;;;;;22.33;17.03;;;21.50;89.50;;;24.15;57.01;101883.19;5094950;28;20239;-61
2023/08/23 06:08:11;;;;;;;24.83;20.70;;;21.40;89.40;;;24.09;57.17;101884.09;5093886;27;20234;-61
2023/08/23 06:10:39;;;;;;;27.27;23.03;;;21.40;89.30;;;24.01;57.32;101876.38;5094239;28;20218;-62
2023/08/23 06:13:06;;;;;;;26.17;22.57;;;21.30;89.40;;;23.89;57.07;101884.44;5094798;28;20213;-61
2023/08/23 06:15:34;;;;;;;27.47;19.40;;;21.20;89.50;;;23.81;57.19;101887.47;5094921;28;20188;-61
2023/08/23 06:18:01;;;;;;;26.00;21.50;;;21.10;89.50;;;23.71;57.67;101881.88;5109142;28;20196;-62
2023/08/23 06:20:28;;;;;;;29.47;21.03;;;21.10;89.80;;;23.64;58.13;101886.53;5114703;28;20211;-61
2023/08/23 06:22:57;;;;;;;29.13;21.33;;;21.00;90.00;;;23.58;58.26;101892.84;5114549;28;20216;-61
2023/08/23 06:25:24;;;;;;;29.17;21.57;;;20.90;90.20;;;23.50;58.69;101890.50;5115353;28;20210;-59
2023/08/23 06:27:52;;;;;;;29.40;21.63;;;20.80;90.30;;;23.46;58.33;101889.31;5101957;28;20193;-60
2023/08/23 06:30:19;;;;;;;22.20;18.60;;;20.80;90.40;;;23.48;58.72;101884.53;5116193;27;20214;-62
2023/08/23 06:32:48;;;;;;;20.67;16.40;;;20.80;90.50;;;23.55;58.71;101887.94;5133399;27;20663;-61
2023/08/23 06:35:17;;;;;;;25.67;20.47;;;20.80;90.50;;;23.65;58.41;101893.56;5114155;28;20192;-61
2023/08/23 06:37:44;;;;;;;25.57;20.57;;;20.80;90.70;;;23.72;58.52;101886.19;5113681;28;20210;-61
2023/08/23 06:40:14;;;;;;;27.07;20.97;;;20.90;90.70;;;23.74;58.64;101885.97;5114540;28;20579;-60
2023/08/23 06:42:41;;;;;;;19.47;14.60;;;20.90;90.70;;;23.80;58.61;101893.91;5114304;28;20252;-61
2023/08/23 06:45:09;;;;;;;20.27;15.23;;;21.00;90.70;;;23.91;58.25;101901.19;5113671;28;20198;-63
2023/08/23 06:47:37;;;;;;;22.00;17.07;;;21.00;90.60;;;24.04;57.85;101894.72;5107119;28;20189;-61
2023/08/23 06:50:07;;;;;;;22.70;19.87;;;21.10;90.50;;;24.13;57.78;101893.34;5100330;28;20319;-60
2023/08/23 06:52:39;;;;;;;23.93;18.37;;;21.20;90.40;;;24.13;57.12;101896.84;5114115;28;20179;-60
2023/08/23 06:55:07;;;;;;;27.70;19.53;;;21.20;90.30;;;24.12;57.49;101889.84;5113668;28;20662;-61
2023/08/23 06:57:34;;;;;;;23.97;19.63;;;21.20;90.30;;;24.16;58.04;101884.78;5103924;28;20275;-61
2023/08/23 07:00:02;;;;;;;22.23;18.33;;;21.30;90.30;;;24.23;57.74;101886.31;5092436;28;20261;-62
2023/08/23 07:02:29;;;;;;;24.60;18.43;;;21.40;90.40;;;24.30;57.75;101886.19;5093150;28;20568;-60
2023/08/23 07:04:56;;;;;;;20.13;17.07;;;21.40;90.30;;;24.39;56.96;101889.34;5093635;28;20277;-61
2023/08/23 07:07:24;;;;;;;16.67;13.40;;;21.50;90.20;;;24.50;57.45;101892.00;5095309;28;20664;-60
2023/08/23 07:09:51;;;;;;;18.10;14.33;;;21.60;90.30;;;24.65;57.21;101888.81;5093164;28;20299;-61
2023/08/23 07:12:18;;;;;;;16.67;13.20;;;21.60;90.10;;;24.75;56.33;101888.97;5093397;28;20679;-60
2023/08/23 07:14:49;;;;;;;15.27;12.07;;;21.70;90.00;;;24.89;56.53;101890.34;5093249;28;20212;-61
2023/08/23 07:17:16;;;;;;;15.83;12.87;;;21.80;90.00;;;25.05;56.07;101892.31;5093933;28;20275;-64
2023/08/23 07:19:44;;;;;;;16.60;14.60;;;21.90;89.70;;;25.19;55.46;101885.53;5092775;28;20205;-60
2023/08/23 07:22:11;;;;;;;19.17;17.17;;;22.00;89.50;;;25.24;55.25;101893.72;5093402;28;20188;-61
2023/08/23 07:24:39;;;;;;;17.77;14.80;;;22.10;88.60;;;25.23;54.80;101892.06;5093089;28;20554;-61
2023/08/23 07:27:07;;;;;;;18.37;14.27;;;22.20;88.60;;;25.32;55.37;101890.59;5098304;28;20501;-62
2023/08/23 07:29:36;;;;;;;15.37;12.10;;;22.20;88.50;;;25.43;54.77;101889.75;5112104;27;20211;-62
2023/08/23 07:32:04;;;;;;;17.53;15.63;;;22.30;88.30;;;25.73;54.23;101896.69;5134223;27;20266;-66
2023/08/23 07:34:31;;;;;;;19.47;17.43;;;22.50;88.50;;;26.07;54.05;101898.28;5119101;27;20671;-62
2023/08/23 07:36:58;;;;;;;19.83;17.23;;;22.60;88.50;;;26.47;52.81;101898.88;5110178;28;20610;-62
2023/08/23 07:39:27;;;;;;;23.30;17.93;;;22.90;87.90;;;27.07;51.60;101892.53;5092985;28;20235;-62
2023/08/23 07:41:55;;;;;;;16.37;14.63;;;23.10;86.30;;;27.58;50.62;101905.44;5099251;28;20235;-62
2023/08/23 07:44:22;;;;;;;17.70;14.47;;;23.50;86.00;;;28.13;49.76;101908.56;5111912;28;20231;-62
2023/08/23 07:46:52;;;;;;;12.87;11.63;;;23.90;84.90;;;28.61;48.34;101909.38;5113170;28;20220;-61
2023/08/23 07:49:20;;;;;;;14.57;13.03;;;24.30;83.70;;;29.06;47.25;101911.38;5113123;28;20201;-61
2023/08/23 07:51:48;;;;;;;13.77;12.47;;;24.70;82.30;;;29.40;46.24;101905.22;5113184;28;20684;-63
2023/08/23 07:54:15;;;;;;;11.33;10.27;;;25.00;81.10;;;29.40;46.02;101907.94;5113588;28;20196;-62
2023/08/23 07:56:42;;;;;;;12.50;11.13;;;25.30;79.30;;;29.18;45.61;101901.94;5110449;28;20184;-61
2023/08/23 07:59:11;;;;;;;16.37;12.30;;;25.40;77.80;;;28.88;45.94;101907.28;5092539;28;20267;-61
2023/08/23 08:01:38;;;;;;;14.87;13.57;;;25.40;76.80;;;28.73;45.95;101907.25;5092938;28;20197;-62
2023/08/23 08:04:05;;;;;;;13.63;12.53;;;25.30;76.70;;;28.74;45.74;101908.88;5095599;28;20626;-61
2023/08/23 08:06:32;;;;;;;16.77;15.27;;;25.30;76.50;;;28.64;45.68;101915.09;5098210;28;20313;-61
2023/08/23 08:08:59;;;;;;;17.93;16.13;;;25.30;76.10;;;28.60;45.70;101910.44;5116933;28;20214;-61
2023/08/23 08:11:26;;;;;;;15.80;14.40;;;25.20;76.40;;;29.20;44.74;101907.91;5117607;28;20280;-61
2023/08/23 08:13:53;;;;;;;16.70;14.20;;;25.30;76.80;;;29.61;43.66;101905.19;5117667;28;20180;-61
2023/08/23 08:16:22;;;;;;;12.40;11.30;;;25.50;75.30;;;29.69;43.04;101905.44;5117792;28;20578;-61
2023/08/23 08:18:49;;;;;;;13.50;11.53;;;25.70;74.90;;;30.18;42.88;101919.25;5116669;28;20193;-61
2023/08/23 08:21:17;;;;;;;10.87;9.80;;;25.90;74.80;;;30.41;42.17;101917.84;5116136;27;20216;-63
2023/08/23 08:23:46;;;;;;;13.13;11.70;;;26.10;74.20;;;30.46;41.82;101921.34;5117407;27;20698;-60
2023/08/23 08:26:13;;;;;;;9.70;8.80;;;26.30;72.20;;;30.16;42.22;101929.59;5116507;28;20199;-59
2023/08/23 08:28:45;;;;;;;9.20;6.97;;;26.30;72.70;;;29.91;42.68;101930.44;5117539;28;20378;-62
2023/08/23 08:31:13;;;;;;;7.67;6.00;;;26.30;71.60;;;30.61;41.78;101926.75;5135740;27;20218;-59
2023/08/23 08:33:42;;;;;;;7.00;5.70;;;26.40;72.70;;;32.01;40.03;101921.41;5129069;27;20271;-61
2023/08/23 08:36:09;;;;;;;6.53;5.37;;;26.70;73.10;;;33.26;37.04;101930.97;5116935;28;20671;-60
2023/08/23 08:38:38;;;;;;;7.13;6.43;;;27.30;70.30;;;33.66;34.35;101929.53;5115024;28;20261;-60
2023/08/23 08:41:05;;;;;;;5.53;4.73;;;27.70;65.00;;;32.92;35.01;101930.38;5110499;28;20308;-61
2023/08/23 08:43:33;;;;;;;5.87;5.20;;;28.00;63.50;;;32.78;34.73;101924.03;5096702;28;20196;-62
2023/08/23 08:46:01;;;;;;;4.40;3.97;;;28.00;61.90;;;32.66;35.82;101927.19;5112228;28;20272;-60
2023/08/23 08:48:28;;;;;;;6.60;5.80;;;28.30;62.60;;;33.04;35.24;101938.97;5109514;28;20226;-60
2023/08/23 08:50:59;;;;;;;6.13;5.53;;;28.40;61.60;;;33.38;34.20;101928.59;5117068;27;20311;-61
2023/08/23 08:53:32;;;;;;;7.60;5.60;;;28.50;61.20;;;34.00;33.43;101919.88;5116970;28;20192;-63
2023/08/23 08:56:00;;;;;;;6.03;5.10;;;28.80;60.80;;;34.86;32.53;101925.50;5116923;28;20194;-62
2023/08/23 08:58:32;;;;;;;5.67;5.17;;;29.30;61.00;;;35.83;31.82;101912.72;5115873;28;20200;-61
2023/08/23 09:01:04;;;;;;;6.20;5.03;;;29.80;60.20;;;36.47;30.01;101915.88;5116604;28;20214;-63
2023/08/23 09:03:33;;;;;;;5.38;4.35;;;30.20;57.20;;;36.63;28.48;101912.34;5116703;28;20543;-61
2023/08/23 09:06:02;;;;;;;5.78;4.70;;;30.50;54.60;;;36.72;29.06;101917.88;5116615;28;20245;-61
2023/08/23 09:08:29;;;;;;;4.20;3.42;;;30.90;54.00;;;37.30;28.70;101918.19;5116381;28;20667;-62
2023/08/23 09:10:56;;;;;;;5.28;4.78;;;31.30;54.40;;;38.25;27.88;101913.22;5116328;28;20215;-62
2023/08/23 09:13:24;;;;;;;7.50;6.25;;;31.70;53.50;;;38.98;27.07;101916.50;5115941;28;20191;-64
2023/08/23 09:15:51;;;;;;;6.30;5.70;;;32.10;52.40;;;39.16;26.59;101909.69;5116425;28;20192;-62
2023/08/23 09:18:19;;;;;;;5.25;4.65;;;32.40;51.60;;;39.34;25.91;101908.41;5116715;28;20660;-61
2023/08/23 09:20:46;;;;;;;5.70;5.15;;;32.80;49.70;;;39.76;25.10;101909.06;5115696;27;20222;-61
2023/08/23 09:23:15;;;;;;;6.30;4.80;;;33.10;48.90;;;40.31;25.49;101906.56;5116382;28;20176;-61
2023/08/23 09:25:42;;;;;;;6.05;4.38;;;33.40;47.90;;;40.91;24.45;101905.69;5113350;28;20211;-63
2023/08/23 09:28:11;;;;;;;5.75;4.32;;;33.80;47.40;;;41.32;23.56;101906.44;5113945;28;20679;-62
2023/08/23 09:30:38;;;;;;;5.88;4.63;;;34.20;44.60;;;41.60;22.74;101904.41;5120503;27;20297;-60
2023/08/23 09:33:10;;;;;;;7.60;4.82;;;34.50;43.20;;;41.73;22.63;101905.94;5103704;27;20197;-64
2023/08/23 09:35:48;;;;;;;5.28;4.78;;;34.90;43.10;;;41.74;22.52;101899.25;5109461;28;20193;-59
2023/08/23 09:38:36;;;;;;;;;;;;;;;;;;;;;
2023/08/23 09:41:07;;;;;;;7.20;6.50;;;35.40;42.10;;;42.43;21.85;101899.34;5099411;28;20232;-62
2023/08/23 09:43:36;;;;;;;5.13;4.32;;;35.50;41.20;;;42.79;21.66;101900.94;5113545;28;20210;-63
2023/08/23 09:46:04;;;;;;;7.47;5.10;;;35.80;41.60;;;42.92;21.13;101898.81;5114217;28;20218;-63
2023/08/23 09:48:36;;;;;;;4.88;4.38;;;35.90;40.10;;;42.83;21.49;101899.03;5115181;28;20199;-62
2023/08/23 09:51:05;;;;;;;4.80;4.15;;;36.20;39.90;;;43.00;21.07;101897.81;5119484;27;20228;-65
2023/08/23 09:53:40;;;;;;;8.85;7.82;;;36.20;39.50;;;43.61;20.73;101893.00;5134732;27;20300;-61
2023/08/23 09:56:08;;;;;;;6.05;5.53;;;36.30;39.20;;;43.72;19.56;101893.22;5108984;28;20548;-63
2023/08/23 09:58:36;;;;;;;4.78;3.97;;;36.20;37.60;;;43.46;20.33;101893.94;5113846;28;20239;-62
2023/08/23 10:01:04;;;;;;;3.90;3.53;;;36.40;38.10;;;43.02;20.68;101887.94;5114561;28;20208;-64
2023/08/23 10:03:32;;;;;;;6.20;4.00;;;36.40;38.00;;;42.48;20.37;101885.19;5115294;27;20199;-64
2023/08/23 10:05:59;;;;;;;4.50;4.10;;;36.30;37.10;;;42.14;20.71;101890.75;5103052;28;20517;-64
2023/08/23 10:08:27;;;;;;;5.55;4.30;;;36.20;37.00;;;41.99;20.79;101888.78;5095473;28;20253;-63